Time;durP1;ratioP1;P1;durP2;ratioP2;P2;SDS_P1;SDS_P2;PMS_P1;PMS_P2;Temp;Humidity;BMP_temperature;BMP_pressure;BME280_temperature;BME280_humidity;BME280_pressure;Samples;Min_cycle;Max_cycle;Signal;HPM_P1;HPM_P2
2021/12/14 00:00:34;;;;;;;100.82;39.90;;;;;;;;;;4953657;28;20456;-67
2021/12/14 00:03:00;;;;;;;102.95;38.63;;;;;;;;;;4972673;28;20360;-66
2021/12/14 00:05:27;;;;;;;110.05;40.25;;;;;;;;;;4970926;28;20530;-66
2021/12/14 00:07:56;;;;;;;116.72;43.65;;;;;;;;;;4971968;28;20305;-66
2021/12/14 00:13:20;;;;;;;109.65;41.03;;;;;;;;;;4955405;28;20372;-66
2021/12/14 00:15:47;;;;;;;107.47;39.67;;;;;;;;;;4955650;28;20372;-66
2021/12/14 00:18:13;;;;;;;98.95;40.50;;;;;;;;;;4971085;28;20340;-66
2021/12/14 00:21:27;;;;;;;113.45;42.10;;;;;;;;;;4971050;28;20064;-66
2021/12/14 00:24:14;;;;;;;97.75;40.83;;;;;;;;;;4858114;29;20322;-66
2021/12/14 00:26:47;;;;;;;111.55;42.15;;;;;;;;;;4971337;28;20336;-66
2021/12/14 00:29:17;;;;;;;108.90;40.70;;;;;;;;;;4971364;28;20344;-66
2021/12/14 00:31:43;;;;;;;112.15;41.28;;;;;;;;;;4970519;28;20520;-66
2021/12/14 00:34:09;;;;;;;104.57;43.85;;;;;;;;;;4971859;28;20436;-69
2021/12/14 00:36:36;;;;;;;102.15;40.00;;;;;;;;;;4952780;28;20567;-66
2021/12/14 00:39:05;;;;;;;107.97;40.95;;;;;;;;;;4953006;28;20448;-66
2021/12/14 00:41:33;;;;;;;102.75;40.17;;;;;;;;;;4952363;28;20344;-66
2021/12/14 00:43:59;;;;;;;109.22;41.35;;;;;;;;;;4971396;28;20416;-66
2021/12/14 00:46:25;;;;;;;109.78;42.30;;;;;;;;;;4952764;28;20321;-66
2021/12/14 00:48:51;;;;;;;103.10;41.40;;;;;;;;;;4970300;28;20340;-65
2021/12/14 00:51:21;;;;;;;104.45;40.45;;;;;;;;;;4970268;28;20351;-66
2021/12/14 00:53:47;;;;;;;100.00;39.92;;;;;;;;;;4953572;28;20309;-66
2021/12/14 00:56:12;;;;;;;93.63;39.63;;;;;;;;;;4970927;28;20390;-66
2021/12/14 00:58:38;;;;;;;105.55;41.35;;;;;;;;;;4952359;28;20482;-67
2021/12/14 01:01:08;;;;;;;104.80;42.30;;;;;;;;;;4975384;28;20336;-69
2021/12/14 01:03:37;;;;;;;93.32;39.65;;;;;;;;;;4982263;28;20355;-66
2021/12/14 01:06:06;;;;;;;106.72;41.65;;;;;;;;;;4989307;28;20399;-66
2021/12/14 01:08:39;;;;;;;;;;;;;;;;;;4972471;28;20175;-66
2021/12/14 01:11:12;;;;;;;108.32;40.15;;;;;;;;;;4990309;28;19935;-66
2021/12/14 01:13:42;;;;;;;106.53;41.42;;;;;;;;;;4989942;28;20298;-66
2021/12/14 01:16:30;;;;;;;102.30;40.45;;;;;;;;;;4989605;28;20440;-66
2021/12/14 01:19:15;;;;;;;103.78;41.75;;;;;;;;;;4991740;28;20462;-66
2021/12/14 01:27:12;;;;;;;113.32;42.25;;;;;;;;;;4990021;28;20037;-66
2021/12/14 01:29:39;;;;;;;106.03;40.45;;;;;;;;;;4989420;28;20404;-65
2021/12/14 01:32:06;;;;;;;115.63;40.55;;;;;;;;;;4989359;28;20454;-66
2021/12/14 01:34:32;;;;;;;102.03;41.25;;;;;;;;;;4990427;28;20554;-66
2021/12/14 01:37:06;;;;;;;104.22;41.63;;;;;;;;;;4988472;28;20382;-66
2021/12/14 01:42:08;;;;;;;106.10;42.17;;;;;;;;;;4988998;28;20435;-66
2021/12/14 01:44:37;;;;;;;112.45;42.08;;;;;;;;;;4989633;28;20428;-66
2021/12/14 01:47:06;;;;;;;112.95;44.17;;;;;;;;;;4989228;28;20053;-67
2021/12/14 01:49:32;;;;;;;110.82;41.15;;;;;;;;;;4970548;28;20414;-66
2021/12/14 01:52:02;;;;;;;118.97;44.00;;;;;;;;;;4988933;28;20052;-66
2021/12/14 01:54:32;;;;;;;109.03;41.38;;;;;;;;;;4971088;28;20020;-68
2021/12/14 01:57:01;;;;;;;113.43;42.20;;;;;;;;;;4970699;28;20455;-66
2021/12/14 01:59:34;;;;;;;114.25;42.65;;;;;;;;;;4988847;28;20337;-66
2021/12/14 02:04:40;;;;;;;107.60;39.15;;;;;;;;;;4988907;28;20440;-65
2021/12/14 02:07:07;;;;;;;94.85;38.33;;;;;;;;;;4971067;28;20347;-66
2021/12/14 02:09:34;;;;;;;103.45;39.55;;;;;;;;;;4970885;28;20336;-66
2021/12/14 02:12:03;;;;;;;95.43;39.33;;;;;;;;;;4988088;28;20447;-66
2021/12/14 02:14:28;;;;;;;106.80;42.22;;;;;;;;;;4971155;28;20552;-66
2021/12/14 02:16:57;;;;;;;109.57;38.83;;;;;;;;;;4988703;28;20503;-66
2021/12/14 02:19:22;;;;;;;103.97;42.28;;;;;;;;;;4988826;28;20379;-66
2021/12/14 02:21:50;;;;;;;103.68;42.47;;;;;;;;;;4989033;28;20494;-66
2021/12/14 02:24:19;;;;;;;117.70;45.78;;;;;;;;;;4971740;28;20507;-66
2021/12/14 02:26:44;;;;;;;;;;;;;;;;;;4989421;28;20029;-66
2021/12/14 02:29:19;;;;;;;103.35;39.97;;;;;;;;;;4989765;28;19913;-66
2021/12/14 02:31:44;;;;;;;105.50;41.40;;;;;;;;;;4988487;28;20368;-66
2021/12/14 02:34:10;;;;;;;112.40;42.45;;;;;;;;;;4970691;28;20388;-66
2021/12/14 02:36:42;;;;;;;115.05;42.30;;;;;;;;;;4990139;28;20408;-66
2021/12/14 02:39:23;;;;;;;98.30;41.05;;;;;;;;;;4988455;28;20450;-65
2021/12/14 02:41:56;;;;;;;107.03;41.47;;;;;;;;;;4972732;28;20336;-66
2021/12/14 02:44:21;;;;;;;106.18;41.63;;;;;;;;;;4971606;28;20424;-66
2021/12/14 02:46:51;;;;;;;110.43;39.38;;;;;;;;;;4988514;28;20100;-66
2021/12/14 02:49:20;;;;;;;99.88;41.35;;;;;;;;;;4992228;28;20432;-66
2021/12/14 02:51:54;;;;;;;96.47;37.33;;;;;;;;;;4993422;28;20312;-66
2021/12/14 02:54:29;;;;;;;103.22;39.00;;;;;;;;;;4992354;28;20427;-66
2021/12/14 02:57:04;;;;;;;108.60;39.67;;;;;;;;;;4992483;28;20111;-68
2021/12/14 02:59:33;;;;;;;101.82;41.58;;;;;;;;;;4992751;28;20493;-66
2021/12/14 03:02:05;;;;;;;108.70;41.50;;;;;;;;;;4992522;28;20342;-66
2021/12/14 03:04:31;;;;;;;105.70;41.78;;;;;;;;;;4991637;28;20447;-66
2021/12/14 03:06:59;;;;;;;115.05;42.58;;;;;;;;;;4974137;28;20111;-67
2021/12/14 03:12:39;;;;;;;103.47;38.80;;;;;;;;;;4991723;28;20337;-66
2021/12/14 03:15:22;;;;;;;101.30;40.60;;;;;;;;;;4974166;28;20463;-66
2021/12/14 03:17:51;;;;;;;112.40;41.95;;;;;;;;;;4974183;28;20336;-66
2021/12/14 03:20:25;;;;;;;113.05;41.05;;;;;;;;;;4992408;28;20327;-67
2021/12/14 03:23:12;;;;;;;111.60;44.20;;;;;;;;;;4974234;28;20348;-66
2021/12/14 03:25:41;;;;;;;96.82;39.75;;;;;;;;;;4991480;28;20468;-66
2021/12/14 03:28:08;;;;;;;115.70;42.15;;;;;;;;;;4974022;28;20490;-66
2021/12/14 03:30:43;;;;;;;116.28;42.03;;;;;;;;;;4974228;28;20512;-66
2021/12/14 03:33:16;;;;;;;109.13;41.90;;;;;;;;;;4993352;28;20375;-66
2021/12/14 03:36:20;;;;;;;101.57;39.10;;;;;;;;;;4991778;28;20351;-66
2021/12/14 03:38:56;;;;;;;113.97;39.42;;;;;;;;;;4910873;28;20031;-67
2021/12/14 03:41:26;;;;;;;105.25;40.65;;;;;;;;;;4983718;28;20316;-66
2021/12/14 03:43:58;;;;;;;98.63;40.85;;;;;;;;;;4991498;28;20052;-66
2021/12/14 03:46:26;;;;;;;99.05;40.78;;;;;;;;;;4990925;28;20095;-66
2021/12/14 03:48:54;;;;;;;100.63;41.20;;;;;;;;;;4973226;28;20347;-66
2021/12/14 03:51:21;;;;;;;102.07;40.42;;;;;;;;;;4973468;28;20395;-66
2021/12/14 03:53:50;;;;;;;105.40;40.38;;;;;;;;;;4991143;28;20344;-66
2021/12/14 03:56:15;;;;;;;103.55;40.58;;;;;;;;;;4973152;28;20501;-66
2021/12/14 03:58:42;;;;;;;112.78;42.75;;;;;;;;;;4972832;28;20390;-66
2021/12/14 04:01:11;;;;;;;113.75;42.25;;;;;;;;;;4991581;28;20325;-66
2021/12/14 04:03:36;;;;;;;117.20;41.78;;;;;;;;;;4991351;28;20434;-66
2021/12/14 04:06:03;;;;;;;103.32;39.63;;;;;;;;;;4990724;28;20476;-66
2021/12/14 04:08:29;;;;;;;117.63;44.63;;;;;;;;;;4973334;28;20427;-66
2021/12/14 04:10:56;;;;;;;114.90;44.45;;;;;;;;;;4990913;28;20332;-66
2021/12/14 04:13:27;;;;;;;105.57;40.70;;;;;;;;;;4991321;28;20351;-66
2021/12/14 04:15:54;;;;;;;103.60;42.95;;;;;;;;;;4990796;28;20408;-66
2021/12/14 04:18:20;;;;;;;116.40;43.05;;;;;;;;;;4990820;28;20425;-66
2021/12/14 04:20:46;;;;;;;115.18;43.58;;;;;;;;;;4990867;28;20383;-66
2021/12/14 04:23:23;;;;;;;110.85;41.88;;;;;;;;;;4956355;28;20390;-66
2021/12/14 04:25:50;;;;;;;117.75;42.65;;;;;;;;;;4990628;28;20510;-68
2021/12/14 04:28:19;;;;;;;111.72;42.13;;;;;;;;;;4990512;28;20452;-66
2021/12/14 04:30:44;;;;;;;105.30;44.65;;;;;;;;;;4973470;28;20432;-65
2021/12/14 04:33:12;;;;;;;109.00;43.60;;;;;;;;;;4990533;28;20521;-66
2021/12/14 04:35:39;;;;;;;113.10;40.63;;;;;;;;;;4973391;28;20355;-66
2021/12/14 04:38:13;;;;;;;117.75;44.90;;;;;;;;;;4990739;28;20451;-66
2021/12/14 04:51:57;;;;;;;101.38;39.53;;;;;;;;;;4976047;28;20059;-67
2021/12/14 04:54:24;;;;;;;108.28;40.28;;;;;;;;;;4974917;28;20433;-66
2021/12/14 04:56:49;;;;;;;118.72;42.80;;;;;;;;;;4972534;28;20466;-66
2021/12/14 04:59:23;;;;;;;117.45;45.10;;;;;;;;;;4991498;28;20503;-66
2021/12/14 05:01:50;;;;;;;112.15;43.42;;;;;;;;;;4972010;28;20025;-66
2021/12/14 05:04:18;;;;;;;108.80;42.28;;;;;;;;;;4972586;28;20343;-68
2021/12/14 05:06:51;;;;;;;111.82;40.67;;;;;;;;;;4990325;28;20471;-66
2021/12/14 05:09:22;;;;;;;113.35;42.15;;;;;;;;;;4973226;28;20487;-66
2021/12/14 05:11:57;;;;;;;119.82;44.47;;;;;;;;;;4988790;28;20436;-65
2021/12/14 05:14:24;;;;;;;111.50;42.85;;;;;;;;;;4972350;28;20331;-66
2021/12/14 05:17:00;;;;;;;128.82;45.13;;;;;;;;;;4989282;28;20439;-66
2021/12/14 05:19:28;;;;;;;123.15;43.17;;;;;;;;;;4989834;28;20440;-66
2021/12/14 05:22:01;;;;;;;110.13;41.72;;;;;;;;;;4989208;28;20317;-66
2021/12/14 05:24:27;;;;;;;111.68;44.03;;;;;;;;;;4972512;28;20336;-66
2021/12/14 05:27:01;;;;;;;107.85;44.00;;;;;;;;;;4989362;28;20485;-66
2021/12/14 05:29:28;;;;;;;114.03;42.67;;;;;;;;;;4989467;28;20086;-66
2021/12/14 05:31:55;;;;;;;107.55;40.20;;;;;;;;;;4990988;28;20430;-67
2021/12/14 05:34:25;;;;;;;104.22;41.92;;;;;;;;;;4971508;28;20423;-65
2021/12/14 05:36:51;;;;;;;124.35;43.95;;;;;;;;;;4989555;28;20106;-65
2021/12/14 05:44:13;;;;;;;117.63;43.87;;;;;;;;;;4989467;28;20443;-66
2021/12/14 05:46:39;;;;;;;99.75;40.85;;;;;;;;;;4989481;28;20452;-66
2021/12/14 05:49:08;;;;;;;107.75;41.80;;;;;;;;;;4971058;28;20463;-66
2021/12/14 05:51:33;;;;;;;128.75;45.78;;;;;;;;;;4989237;28;20432;-66
2021/12/14 05:53:59;;;;;;;117.45;41.92;;;;;;;;;;4990210;28;20405;-66
2021/12/14 05:56:27;;;;;;;123.60;43.00;;;;;;;;;;4990033;28;20371;-66
2021/12/14 05:58:53;;;;;;;117.05;44.15;;;;;;;;;;4989619;28;20414;-66
2021/12/14 06:01:22;;;;;;;117.13;44.83;;;;;;;;;;4989780;28;20123;-67
2021/12/14 06:03:55;;;;;;;123.88;43.65;;;;;;;;;;4955132;28;20298;-69
2021/12/14 06:06:25;;;;;;;110.45;41.28;;;;;;;;;;4988368;28;20382;-65
2021/12/14 06:08:59;;;;;;;115.20;42.85;;;;;;;;;;4988764;28;20356;-66
2021/12/14 06:11:26;;;;;;;123.40;44.55;;;;;;;;;;4954824;28;20378;-69
2021/12/14 06:13:51;;;;;;;112.40;43.15;;;;;;;;;;4971068;28;20523;-66
2021/12/14 06:16:21;;;;;;;118.85;45.25;;;;;;;;;;4989742;28;20493;-66
2021/12/14 06:18:47;;;;;;;115.55;44.35;;;;;;;;;;4988866;28;20482;-67
2021/12/14 06:21:12;;;;;;;113.55;43.70;;;;;;;;;;4988713;28;20316;-67
2021/12/14 06:23:38;;;;;;;117.20;42.92;;;;;;;;;;4992379;28;20029;-66
2021/12/14 06:26:03;;;;;;;115.25;44.15;;;;;;;;;;4993169;28;20416;-66
2021/12/14 06:28:29;;;;;;;121.93;45.05;;;;;;;;;;4992897;28;20473;-66
2021/12/14 06:30:55;;;;;;;107.65;44.45;;;;;;;;;;4992540;28;20412;-66
2021/12/14 06:33:21;;;;;;;109.38;42.17;;;;;;;;;;4992892;28;20021;-67
2021/12/14 06:35:50;;;;;;;109.05;41.58;;;;;;;;;;4993606;28;20048;-66
2021/12/14 06:38:28;;;;;;;101.28;39.40;;;;;;;;;;4974288;28;20344;-66
2021/12/14 06:40:59;;;;;;;116.60;43.87;;;;;;;;;;4974692;28;20412;-66
2021/12/14 06:43:27;;;;;;;124.53;44.90;;;;;;;;;;4974347;28;20387;-66
2021/12/14 06:45:56;;;;;;;126.18;45.88;;;;;;;;;;4993999;28;20419;-66
2021/12/14 06:48:44;;;;;;;126.63;42.67;;;;;;;;;;4992625;28;20432;-66
2021/12/14 06:51:31;;;;;;;115.80;42.95;;;;;;;;;;4992692;28;20444;-66
2021/12/14 06:54:01;;;;;;;113.70;41.25;;;;;;;;;;4992293;28;20463;-66
2021/12/14 06:56:29;;;;;;;119.00;43.03;;;;;;;;;;4974285;28;20351;-67
2021/12/14 06:58:57;;;;;;;121.82;42.65;;;;;;;;;;4974020;28;20439;-66
2021/12/14 07:01:30;;;;;;;115.82;41.72;;;;;;;;;;4993889;28;20025;-66
2021/12/14 07:04:02;;;;;;;110.32;41.05;;;;;;;;;;4974417;28;20464;-66
2021/12/14 07:06:44;;;;;;;109.72;40.47;;;;;;;;;;4991534;28;20049;-66
2021/12/14 07:09:14;;;;;;;111.68;40.85;;;;;;;;;;4991816;28;20479;-70
2021/12/14 07:11:57;;;;;;;112.47;42.45;;;;;;;;;;4974342;28;20336;-66
2021/12/14 07:14:28;;;;;;;111.18;42.30;;;;;;;;;;4974063;28;20025;-66
2021/12/14 07:16:57;;;;;;;109.72;42.35;;;;;;;;;;4992126;28;20460;-66
2021/12/14 07:19:40;;;;;;;116.28;42.50;;;;;;;;;;4993191;28;20456;-66
2021/12/14 07:22:06;;;;;;;85.78;38.35;;;;;;;;;;4973824;28;20363;-66
2021/12/14 07:24:37;;;;;;;113.03;42.95;;;;;;;;;;4974442;28;20471;-66
2021/12/14 07:27:14;;;;;;;118.78;42.88;;;;;;;;;;4991736;28;20419;-66
2021/12/14 07:29:39;;;;;;;103.50;40.22;;;;;;;;;;4993563;28;20109;-70
2021/12/14 07:32:05;;;;;;;108.80;40.38;;;;;;;;;;4973792;28;20040;-67
2021/12/14 07:34:30;;;;;;;109.60;41.15;;;;;;;;;;4990495;28;20447;-66
2021/12/14 07:36:56;;;;;;;110.65;41.88;;;;;;;;;;4991681;28;20609;-66
2021/12/14 07:39:22;;;;;;;101.03;39.47;;;;;;;;;;4973239;28;20517;-66
2021/12/14 07:41:50;;;;;;;99.78;40.38;;;;;;;;;;4991135;28;20532;-66
2021/12/14 07:44:37;;;;;;;108.05;41.17;;;;;;;;;;4990976;28;20422;-66
2021/12/14 07:47:04;;;;;;;101.72;38.58;;;;;;;;;;4992680;28;20424;-66
2021/12/14 07:49:39;;;;;;;102.15;41.47;;;;;;;;;;4992517;28;20430;-66
2021/12/14 07:52:07;;;;;;;107.97;42.72;;;;;;;;;;4972881;28;20440;-66
2021/12/14 07:54:35;;;;;;;93.82;38.67;;;;;;;;;;4991171;28;20340;-66
2021/12/14 07:57:09;;;;;;;96.80;38.15;;;;;;;;;;4991350;28;20348;-67
2021/12/14 07:59:38;;;;;;;108.20;41.42;;;;;;;;;;4990921;28;20343;-66
2021/12/14 08:02:17;;;;;;;116.40;41.15;;;;;;;;;;4990976;28;20443;-66
2021/12/14 08:04:58;;;;;;;93.45;39.17;;;;;;;;;;4990180;28;20379;-66
2021/12/14 08:07:34;;;;;;;104.90;40.85;;;;;;;;;;4991088;28;20402;-66
2021/12/14 08:10:13;;;;;;;106.85;37.17;;;;;;;;;;4990462;28;20059;-66
2021/12/14 08:12:48;;;;;;;91.95;36.65;;;;;;;;;;4990500;28;20021;-66
2021/12/14 08:15:17;;;;;;;103.80;40.63;;;;;;;;;;4972326;28;20317;-66
2021/12/14 08:17:43;;;;;;;100.38;39.17;;;;;;;;;;4992287;28;20379;-66
2021/12/14 08:20:12;;;;;;;101.93;37.75;;;;;;;;;;4990509;28;20106;-66
2021/12/14 08:22:39;;;;;;;;;;;;;;;;;;4990765;28;20328;-66
2021/12/14 08:25:09;;;;;;;102.65;38.30;;;;;;;;;;4991478;28;19913;-66
2021/12/14 08:27:34;;;;;;;94.07;36.88;;;;;;;;;;4990273;28;20412;-66
2021/12/14 08:30:07;;;;;;;98.03;37.85;;;;;;;;;;4972595;28;20444;-66
2021/12/14 08:32:35;;;;;;;94.45;38.70;;;;;;;;;;4990412;28;20446;-66
2021/12/14 08:35:04;;;;;;;95.53;38.92;;;;;;;;;;4990631;28;20021;-66
2021/12/14 08:37:39;;;;;;;85.13;37.33;;;;;;;;;;4989806;28;20091;-66
2021/12/14 08:40:15;;;;;;;102.90;38.65;;;;;;;;;;4991323;28;20493;-66
2021/12/14 08:42:52;;;;;;;86.97;36.53;;;;;;;;;;4972475;28;20440;-66
2021/12/14 08:45:26;;;;;;;88.03;39.22;;;;;;;;;;4973320;28;20065;-66
2021/12/14 08:48:33;;;;;;;100.53;41.78;;;;;;;;;;4972290;28;20025;-66
2021/12/14 08:51:20;;;;;;;96.47;38.40;;;;;;;;;;4987054;28;20040;-66
2021/12/14 08:53:52;;;;;;;89.60;35.53;;;;;;;;;;4990241;28;20432;-66
2021/12/14 08:56:20;;;;;;;91.72;39.10;;;;;;;;;;4972376;28;20436;-66
2021/12/14 08:58:46;;;;;;;84.00;35.05;;;;;;;;;;4972204;28;20371;-66
2021/12/14 09:01:18;;;;;;;82.63;35.13;;;;;;;;;;4990498;28;20056;-66
2021/12/14 09:03:50;;;;;;;94.13;35.58;;;;;;;;;;4972007;28;20041;-66
2021/12/14 09:06:18;;;;;;;93.82;35.60;;;;;;;;;;4966177;28;20503;-66
2021/12/14 09:08:45;;;;;;;91.10;35.20;;;;;;;;;;4952112;28;20352;-66
2021/12/14 09:11:12;;;;;;;101.47;36.17;;;;;;;;;;4970192;28;20447;-67
2021/12/14 09:13:38;;;;;;;81.50;35.65;;;;;;;;;;4952152;28;20368;-67
2021/12/14 09:16:17;;;;;;;94.82;37.00;;;;;;;;;;4969741;28;20437;-66
2021/12/14 09:18:46;;;;;;;79.90;34.10;;;;;;;;;;4970436;28;20448;-66
2021/12/14 09:21:17;;;;;;;81.53;33.38;;;;;;;;;;4969906;28;20337;-66
2021/12/14 09:23:46;;;;;;;93.72;36.15;;;;;;;;;;4970025;28;20099;-66
2021/12/14 09:26:14;;;;;;;;;;;;;;;;;;4969936;28;20378;-67
2021/12/14 09:28:40;;;;;;;74.82;31.92;;;;;;;;;;4951801;28;20378;-66
2021/12/14 09:31:09;;;;;;;85.28;34.83;;;;;;;;;;4969741;28;20499;-66
2021/12/14 09:33:36;;;;;;;83.75;33.03;;;;;;;;;;4967974;28;20446;-68
2021/12/14 09:36:08;;;;;;;80.25;35.45;;;;;;;;;;4951985;28;20356;-66
2021/12/14 09:38:39;;;;;;;87.55;33.88;;;;;;;;;;4969701;28;20356;-66
2021/12/14 09:41:07;;;;;;;86.28;33.15;;;;;;;;;;4969141;28;20026;-66
2021/12/14 09:43:33;;;;;;;79.80;32.42;;;;;;;;;;4952827;28;20325;-65
2021/12/14 09:45:59;;;;;;;82.85;33.35;;;;;;;;;;4969788;28;20328;-66
2021/12/14 09:48:34;;;;;;;77.82;32.17;;;;;;;;;;4969428;28;20503;-65
2021/12/14 09:51:07;;;;;;;70.32;31.77;;;;;;;;;;4969586;28;20440;-66
2021/12/14 09:53:35;;;;;;;77.45;32.50;;;;;;;;;;4968056;28;20030;-66
2021/12/14 09:56:00;;;;;;;77.75;33.58;;;;;;;;;;4969321;28;20021;-66
2021/12/14 09:58:30;;;;;;;67.82;31.52;;;;;;;;;;4968510;28;20044;-67
2021/12/14 10:01:00;;;;;;;77.55;31.55;;;;;;;;;;4951456;28;20095;-66
2021/12/14 10:03:26;;;;;;;76.22;31.13;;;;;;;;;;4968018;28;20397;-65
2021/12/14 10:06:06;;;;;;;77.22;31.45;;;;;;;;;;4967594;28;20410;-67
2021/12/14 10:08:42;;;;;;;74.30;29.67;;;;;;;;;;4968948;28;20467;-65
2021/12/14 10:11:26;;;;;;;77.43;30.45;;;;;;;;;;4951438;28;20437;-66
2021/12/14 10:13:54;;;;;;;79.70;30.63;;;;;;;;;;4967952;28;20439;-65
2021/12/14 10:16:19;;;;;;;75.43;31.83;;;;;;;;;;4969971;28;20424;-69
2021/12/14 10:18:52;;;;;;;66.03;29.95;;;;;;;;;;4969266;28;20356;-67
2021/12/14 10:21:22;;;;;;;71.38;31.10;;;;;;;;;;4952754;28;20500;-67
2021/12/14 10:23:49;;;;;;;69.65;28.73;;;;;;;;;;4967575;28;20022;-68
2021/12/14 10:26:16;;;;;;;67.68;29.30;;;;;;;;;;4951596;28;20396;-65
2021/12/14 10:28:46;;;;;;;75.13;30.98;;;;;;;;;;4950866;28;20088;-66
2021/12/14 10:31:29;;;;;;;69.82;30.40;;;;;;;;;;4951293;28;20376;-66
2021/12/14 10:33:58;;;;;;;67.15;28.30;;;;;;;;;;4968864;28;20528;-66
2021/12/14 10:36:33;;;;;;;78.43;30.80;;;;;;;;;;4969018;28;20341;-65
2021/12/14 10:39:07;;;;;;;67.53;31.80;;;;;;;;;;4967876;28;20440;-66
2021/12/14 10:44:17;;;;;;;68.55;28.20;;;;;;;;;;4970239;28;20052;-66
2021/12/14 10:46:46;;;;;;;69.03;28.33;;;;;;;;;;4951133;28;20456;-66
2021/12/14 10:49:13;;;;;;;72.63;30.07;;;;;;;;;;4970149;28;20375;-66
2021/12/14 10:51:41;;;;;;;58.95;27.42;;;;;;;;;;4968801;28;20396;-65
2021/12/14 10:54:10;;;;;;;64.63;29.23;;;;;;;;;;4969103;28;20512;-66
2021/12/14 10:56:47;;;;;;;62.72;26.02;;;;;;;;;;4970043;28;20322;-66
2021/12/14 10:59:15;;;;;;;66.72;28.67;;;;;;;;;;4969309;28;20033;-66
2021/12/14 11:01:48;;;;;;;57.97;25.63;;;;;;;;;;4968559;28;20375;-67
2021/12/14 11:04:14;;;;;;;62.08;26.23;;;;;;;;;;4969897;28;20420;-66
2021/12/14 11:06:42;;;;;;;54.38;25.77;;;;;;;;;;4966630;28;20452;-65
2021/12/14 11:11:43;;;;;;;58.45;25.52;;;;;;;;;;4993736;28;20416;-66
2021/12/14 11:14:10;;;;;;;56.20;24.77;;;;;;;;;;4991648;28;20375;-66
2021/12/14 11:19:52;;;;;;;53.70;23.08;;;;;;;;;;4991944;28;20360;-65
2021/12/14 11:22:23;;;;;;;59.25;24.88;;;;;;;;;;4957280;28;20057;-67
2021/12/14 11:25:07;;;;;;;54.03;23.10;;;;;;;;;;4974052;28;20328;-65
2021/12/14 11:27:39;;;;;;;57.65;25.38;;;;;;;;;;4974098;28;20428;-66
2021/12/14 11:30:54;;;;;;;52.67;25.02;;;;;;;;;;4991057;28;20423;-66
2021/12/14 11:33:26;;;;;;;59.85;24.77;;;;;;;;;;4939744;28;20049;-65
2021/12/14 11:36:16;;;;;;;50.60;22.77;;;;;;;;;;4991590;28;20466;-66
2021/12/14 11:39:00;;;;;;;52.55;23.10;;;;;;;;;;4973435;28;20024;-66
2021/12/14 11:41:44;;;;;;;49.25;22.20;;;;;;;;;;4991530;28;20379;-66
2021/12/14 11:44:34;;;;;;;52.67;22.98;;;;;;;;;;4991342;28;20407;-66
2021/12/14 11:47:41;;;;;;;53.45;22.55;;;;;;;;;;4990442;28;20387;-66
2021/12/14 11:50:30;;;;;;;57.22;22.73;;;;;;;;;;4991968;28;20428;-66
2021/12/14 11:53:06;;;;;;;48.42;21.92;;;;;;;;;;4991458;28;20436;-66
2021/12/14 11:55:40;;;;;;;54.33;22.65;;;;;;;;;;4990813;28;20455;-66
2021/12/14 11:58:18;;;;;;;53.72;22.67;;;;;;;;;;4991262;28;20321;-67
2021/12/14 12:00:52;;;;;;;50.35;21.40;;;;;;;;;;4991993;28;20347;-66
2021/12/14 12:03:28;;;;;;;56.60;22.77;;;;;;;;;;4991332;28;20412;-66
2021/12/14 12:06:43;;;;;;;64.68;24.75;;;;;;;;;;4990849;28;20543;-66
2021/12/14 12:09:30;;;;;;;48.05;19.90;;;;;;;;;;4990911;28;20475;-66
2021/12/14 12:12:04;;;;;;;50.72;20.77;;;;;;;;;;4974843;28;20391;-67
2021/12/14 12:14:42;;;;;;;42.88;19.50;;;;;;;;;;4990503;28;20683;-66
2021/12/14 12:17:51;;;;;;;48.67;19.67;;;;;;;;;;4990842;28;20397;-67
2021/12/14 12:20:22;;;;;;;52.72;21.77;;;;;;;;;;4986848;28;20375;-66
2021/12/14 12:22:54;;;;;;;45.38;19.98;;;;;;;;;;4991702;28;20367;-68
2021/12/14 12:25:31;;;;;;;44.00;19.80;;;;;;;;;;4972862;28;20432;-67
2021/12/14 12:28:11;;;;;;;44.70;18.83;;;;;;;;;;4990803;28;20102;-66
2021/12/14 12:30:41;;;;;;;46.30;19.33;;;;;;;;;;4972739;28;20309;-66
2021/12/14 12:33:19;;;;;;;38.55;19.70;;;;;;;;;;4990509;28;20525;-66
2021/12/14 12:35:49;;;;;;;41.95;20.40;;;;;;;;;;4990284;28;20352;-66
2021/12/14 12:38:35;;;;;;;49.72;19.88;;;;;;;;;;4990414;28;20424;-67
2021/12/14 12:41:13;;;;;;;36.00;17.85;;;;;;;;;;4989925;28;20414;-66
2021/12/14 12:43:48;;;;;;;40.28;19.73;;;;;;;;;;4990353;28;20468;-66
2021/12/14 12:46:23;;;;;;;42.83;20.25;;;;;;;;;;4991027;28;20459;-66
2021/12/14 12:48:53;;;;;;;38.70;18.00;;;;;;;;;;4990084;28;20480;-69
2021/12/14 12:51:40;;;;;;;34.22;17.48;;;;;;;;;;4972012;28;20420;-67
2021/12/14 12:54:43;;;;;;;40.00;20.40;;;;;;;;;;4990178;28;20330;-66
2021/12/14 12:57:09;;;;;;;39.30;18.45;;;;;;;;;;4989984;28;20353;-66
2021/12/14 12:59:49;;;;;;;34.63;17.98;;;;;;;;;;4990715;28;20475;-66
2021/12/14 13:02:30;;;;;;;44.22;18.77;;;;;;;;;;4990421;28;20068;-67
2021/12/14 13:05:27;;;;;;;33.22;16.98;;;;;;;;;;4989910;28;20423;-66
2021/12/14 13:08:01;;;;;;;39.78;18.20;;;;;;;;;;4970750;28;20441;-67
2021/12/14 13:10:50;;;;;;;39.75;17.48;;;;;;;;;;4989212;28;20332;-66
2021/12/14 13:13:20;;;;;;;42.00;17.83;;;;;;;;;;4989635;28;20349;-66
2021/12/14 13:15:48;;;;;;;38.00;16.55;;;;;;;;;;4971725;28;20428;-66
2021/12/14 13:18:29;;;;;;;38.10;17.77;;;;;;;;;;4989361;28;20029;-66
2021/12/14 13:21:14;;;;;;;39.72;17.48;;;;;;;;;;4989838;28;20477;-66
2021/12/14 13:23:54;;;;;;;40.90;18.05;;;;;;;;;;4989129;28;20355;-67
2021/12/14 13:26:24;;;;;;;39.38;19.02;;;;;;;;;;4989598;28;20442;-67
2021/12/14 13:28:52;;;;;;;43.28;16.45;;;;;;;;;;4971422;28;20328;-67
2021/12/14 13:31:31;;;;;;;38.55;18.48;;;;;;;;;;4988920;28;20444;-67
2021/12/14 13:33:58;;;;;;;38.00;14.98;;;;;;;;;;4989435;28;20354;-67
2021/12/14 13:36:23;;;;;;;38.08;16.95;;;;;;;;;;4972358;28;20428;-66
2021/12/14 13:38:50;;;;;;;43.05;17.10;;;;;;;;;;4971550;28;20489;-67
2021/12/14 13:41:53;;;;;;;37.03;17.13;;;;;;;;;;4989414;28;20336;-66
2021/12/14 13:44:18;;;;;;;41.92;16.90;;;;;;;;;;4989072;28;20386;-67
2021/12/14 13:46:44;;;;;;;35.15;17.02;;;;;;;;;;4971303;28;20099;-67
2021/12/14 13:49:11;;;;;;;43.10;17.23;;;;;;;;;;4971180;28;20167;-67
2021/12/14 13:51:37;;;;;;;34.95;15.35;;;;;;;;;;4971512;28;20021;-66
2021/12/14 13:54:03;;;;;;;38.97;17.67;;;;;;;;;;4988873;28;20055;-67
2021/12/14 13:56:39;;;;;;;37.15;17.83;;;;;;;;;;4990598;28;20454;-67
2021/12/14 13:59:05;;;;;;;31.77;15.60;;;;;;;;;;4971377;28;20387;-66
2021/12/14 14:01:37;;;;;;;35.35;15.70;;;;;;;;;;4989073;28;20029;-66
2021/12/14 14:04:06;;;;;;;43.20;17.35;;;;;;;;;;4988912;28;20452;-67
2021/12/14 14:06:33;;;;;;;36.40;17.55;;;;;;;;;;4971002;28;20045;-66
2021/12/14 14:09:08;;;;;;;37.60;16.92;;;;;;;;;;4970729;28;20456;-67
2021/12/14 14:11:42;;;;;;;30.83;15.20;;;;;;;;;;4971055;28;20033;-66
2021/12/14 14:14:30;;;;;;;30.92;15.98;;;;;;;;;;4970561;28;20399;-66
2021/12/14 14:17:07;;;;;;;35.65;16.38;;;;;;;;;;4988033;28;20347;-66
2021/12/14 14:19:36;;;;;;;37.28;15.90;;;;;;;;;;4988861;28;20450;-66
2021/12/14 14:22:06;;;;;;;;;;;;;;;;;;4971388;28;20400;-66
2021/12/14 14:24:35;;;;;;;36.63;16.50;;;;;;;;;;4988964;28;20376;-67
2021/12/14 14:27:03;;;;;;;35.92;16.23;;;;;;;;;;4988330;28;20416;-66
2021/12/14 14:29:41;;;;;;;47.65;17.38;;;;;;;;;;4989241;28;20439;-66
2021/12/14 14:32:22;;;;;;;37.27;15.73;;;;;;;;;;4988509;28;20440;-67
2021/12/14 14:34:54;;;;;;;37.75;17.67;;;;;;;;;;4971862;28;20662;-67
2021/12/14 14:37:28;;;;;;;34.13;14.32;;;;;;;;;;4971691;28;20098;-66
2021/12/14 14:40:20;;;;;;;31.77;14.90;;;;;;;;;;4990420;28;20355;-66
2021/12/14 14:42:54;;;;;;;35.65;15.25;;;;;;;;;;4979412;28;20059;-67
2021/12/14 14:45:26;;;;;;;34.30;16.00;;;;;;;;;;4974040;28;20443;-67
2021/12/14 14:47:54;;;;;;;41.65;15.55;;;;;;;;;;4974060;28;20309;-66
2021/12/14 14:50:33;;;;;;;46.05;17.45;;;;;;;;;;4974298;28;20355;-67
2021/12/14 14:53:04;;;;;;;44.40;18.05;;;;;;;;;;4974780;28;20528;-66
2021/12/14 14:55:40;;;;;;;37.30;16.20;;;;;;;;;;4992061;28;20329;-67
2021/12/14 14:58:16;;;;;;;39.35;15.20;;;;;;;;;;4992205;28;20367;-67
2021/12/14 15:00:47;;;;;;;40.88;16.88;;;;;;;;;;4975071;28;20029;-67
2021/12/14 15:03:46;;;;;;;42.13;15.98;;;;;;;;;;4992674;28;20389;-67
2021/12/14 15:06:32;;;;;;;;;;;;;;;;;;4989120;28;20132;-67
2021/12/14 15:09:05;;;;;;;42.15;16.70;;;;;;;;;;4992290;28;20328;-67
2021/12/14 15:11:32;;;;;;;36.10;15.57;;;;;;;;;;4992326;28;20455;-67
2021/12/14 15:14:13;;;;;;;37.22;16.00;;;;;;;;;;4992067;28;20029;-66
2021/12/14 15:16:59;;;;;;;40.80;15.98;;;;;;;;;;4992024;28;20099;-68
2021/12/14 15:19:42;;;;;;;37.92;15.85;;;;;;;;;;4974639;28;20336;-68
2021/12/14 15:22:13;;;;;;;38.97;15.80;;;;;;;;;;4992284;28;20036;-67
2021/12/14 15:24:43;;;;;;;44.50;16.40;;;;;;;;;;4992140;28;20348;-66